sensor_id;sensor_type;location;lat;lon;timestamp;P1;durP1;ratioP1;P2;durP2;ratioP2
7142;SDS011;3613;48.902;9.204;2023-05-10T00:02:18;3.00;;;1.70;;
7142;SDS011;3613;48.902;9.204;2023-05-10T00:04:44;2.07;;;1.80;;
7142;SDS011;3613;48.902;9.204;2023-05-10T00:07:09;2.40;;;1.30;;
7142;SDS011;3613;48.902;9.204;2023-05-10T00:09:35;2.23;;;1.40;;
7142;SDS011;3613;48.902;9.204;2023-05-10T00:12:01;1.20;;;1.10;;
7142;SDS011;3613;48.902;9.204;2023-05-10T00:14:27;2.30;;;1.20;;
7142;SDS011;3613;48.902;9.204;2023-05-10T00:16:56;0.80;;;0.80;;
7142;SDS011;3613;48.902;9.204;2023-05-10T00:19:21;1.07;;;0.97;;
7142;SDS011;3613;48.902;9.204;2023-05-10T00:21:47;1.07;;;0.97;;
7142;SDS011;3613;48.902;9.204;2023-05-10T00:24:13;0.80;;;0.80;;
7142;SDS011;3613;48.902;9.204;2023-05-10T00:26:38;0.83;;;0.80;;
7142;SDS011;3613;48.902;9.204;2023-05-10T00:29:04;5.20;;;1.10;;
7142;SDS011;3613;48.902;9.204;2023-05-10T00:31:30;2.10;;;1.00;;
7142;SDS011;3613;48.902;9.204;2023-05-10T00:33:55;1.20;;;0.93;;
7142;SDS011;3613;48.902;9.204;2023-05-10T00:36:24;1.47;;;0.90;;
7142;SDS011;3613;48.902;9.204;2023-05-10T00:38:50;2.37;;;1.00;;
7142;SDS011;3613;48.902;9.204;2023-05-10T00:41:16;1.00;;;0.90;;
7142;SDS011;3613;48.902;9.204;2023-05-10T00:43:41;1.10;;;1.00;;
7142;SDS011;3613;48.902;9.204;2023-05-10T00:46:12;1.43;;;1.00;;
7142;SDS011;3613;48.902;9.204;2023-05-10T00:48:40;1.33;;;1.10;;
7142;SDS011;3613;48.902;9.204;2023-05-10T00:51:05;1.40;;;1.30;;
7142;SDS011;3613;48.902;9.204;2023-05-10T00:53:33;1.20;;;1.10;;
7142;SDS011;3613;48.902;9.204;2023-05-10T00:56:05;1.13;;;1.03;;
7142;SDS011;3613;48.902;9.204;2023-05-10T00:58:31;1.33;;;1.23;;
7142;SDS011;3613;48.902;9.204;2023-05-10T01:00:59;2.00;;;1.20;;
7142;SDS011;3613;48.902;9.204;2023-05-10T01:03:25;1.30;;;1.20;;
7142;SDS011;3613;48.902;9.204;2023-05-10T01:05:51;2.80;;;1.33;;
7142;SDS011;3613;48.902;9.204;2023-05-10T01:08:17;3.23;;;1.40;;
7142;SDS011;3613;48.902;9.204;2023-05-10T01:10:45;1.90;;;1.43;;
7142;SDS011;3613;48.902;9.204;2023-05-10T01:13:14;1.20;;;1.10;;
7142;SDS011;3613;48.902;9.204;2023-05-10T01:15:50;1.63;;;1.37;;
7142;SDS011;3613;48.902;9.204;2023-05-10T01:18:16;4.37;;;1.67;;
7142;SDS011;3613;48.902;9.204;2023-05-10T01:20:46;1.30;;;1.20;;
7142;SDS011;3613;48.902;9.204;2023-05-10T01:23:31;1.40;;;1.30;;
7142;SDS011;3613;48.902;9.204;2023-05-10T01:34:04;2.23;;;1.93;;
7142;SDS011;3613;48.902;9.204;2023-05-10T01:39:08;2.20;;;1.97;;
7142;SDS011;3613;48.902;9.204;2023-05-10T01:44:34;2.40;;;2.17;;
7142;SDS011;3613;48.902;9.204;2023-05-10T01:47:05;2.97;;;2.20;;
7142;SDS011;3613;48.902;9.204;2023-05-10T01:49:34;2.97;;;2.23;;
7142;SDS011;3613;48.902;9.204;2023-05-10T01:52:06;2.67;;;2.20;;
7142;SDS011;3613;48.902;9.204;2023-05-10T01:54:36;5.30;;;2.20;;
7142;SDS011;3613;48.902;9.204;2023-05-10T01:57:08;3.20;;;2.70;;
7142;SDS011;3613;48.902;9.204;2023-05-10T01:59:39;3.10;;;2.40;;
7142;SDS011;3613;48.902;9.204;2023-05-10T02:02:08;5.83;;;2.10;;
7142;SDS011;3613;48.902;9.204;2023-05-10T02:04:37;2.50;;;2.13;;
7142;SDS011;3613;48.902;9.204;2023-05-10T02:07:05;2.43;;;2.10;;
7142;SDS011;3613;48.902;9.204;2023-05-10T02:09:33;3.90;;;2.20;;
7142;SDS011;3613;48.902;9.204;2023-05-10T02:12:01;3.70;;;2.23;;
7142;SDS011;3613;48.902;9.204;2023-05-10T02:14:32;2.83;;;2.03;;
7142;SDS011;3613;48.902;9.204;2023-05-10T02:17:00;2.50;;;2.30;;
7142;SDS011;3613;48.902;9.204;2023-05-10T02:19:29;2.67;;;1.90;;
7142;SDS011;3613;48.902;9.204;2023-05-10T02:21:57;3.27;;;2.33;;
7142;SDS011;3613;48.902;9.204;2023-05-10T02:24:25;3.00;;;2.23;;
7142;SDS011;3613;48.902;9.204;2023-05-10T02:26:53;2.50;;;2.10;;
7142;SDS011;3613;48.902;9.204;2023-05-10T02:29:20;3.37;;;2.23;;
7142;SDS011;3613;48.902;9.204;2023-05-10T02:31:48;2.27;;;2.07;;
7142;SDS011;3613;48.902;9.204;2023-05-10T02:34:16;4.40;;;2.33;;
7142;SDS011;3613;48.902;9.204;2023-05-10T02:36:42;3.97;;;2.47;;
7142;SDS011;3613;48.902;9.204;2023-05-10T02:39:08;2.90;;;2.30;;
7142;SDS011;3613;48.902;9.204;2023-05-10T02:41:39;2.90;;;2.50;;
7142;SDS011;3613;48.902;9.204;2023-05-10T02:44:06;3.60;;;2.57;;
7142;SDS011;3613;48.902;9.204;2023-05-10T02:46:34;4.80;;;2.70;;
7142;SDS011;3613;48.902;9.204;2023-05-10T02:49:03;2.80;;;2.50;;
7142;SDS011;3613;48.902;9.204;2023-05-10T02:51:34;3.37;;;3.00;;
7142;SDS011;3613;48.902;9.204;2023-05-10T02:54:15;4.03;;;3.17;;
7142;SDS011;3613;48.902;9.204;2023-05-10T02:56:49;3.60;;;3.07;;
7142;SDS011;3613;48.902;9.204;2023-05-10T02:59:19;5.00;;;3.17;;
7142;SDS011;3613;48.902;9.204;2023-05-10T03:01:45;6.57;;;3.70;;
7142;SDS011;3613;48.902;9.204;2023-05-10T03:04:11;3.07;;;2.70;;
7142;SDS011;3613;48.902;9.204;2023-05-10T03:06:42;6.53;;;3.40;;
7142;SDS011;3613;48.902;9.204;2023-05-10T03:09:10;3.83;;;2.80;;
7142;SDS011;3613;48.902;9.204;2023-05-10T03:17:10;4.73;;;3.27;;
7142;SDS011;3613;48.902;9.204;2023-05-10T03:19:55;4.80;;;3.70;;
7142;SDS011;3613;48.902;9.204;2023-05-10T03:22:38;3.70;;;3.37;;
7142;SDS011;3613;48.902;9.204;2023-05-10T03:25:16;5.90;;;4.03;;
7142;SDS011;3613;48.902;9.204;2023-05-10T03:27:43;4.37;;;3.87;;
7142;SDS011;3613;48.902;9.204;2023-05-10T03:30:12;4.00;;;3.60;;
7142;SDS011;3613;48.902;9.204;2023-05-10T03:32:39;4.60;;;3.43;;
7142;SDS011;3613;48.902;9.204;2023-05-10T03:35:08;8.17;;;3.77;;
7142;SDS011;3613;48.902;9.204;2023-05-10T03:37:34;4.27;;;3.80;;
7142;SDS011;3613;48.902;9.204;2023-05-10T03:40:00;6.13;;;4.93;;
7142;SDS011;3613;48.902;9.204;2023-05-10T03:42:26;6.43;;;4.10;;
7142;SDS011;3613;48.902;9.204;2023-05-10T03:44:52;5.10;;;3.90;;
7142;SDS011;3613;48.902;9.204;2023-05-10T03:47:18;5.37;;;3.87;;
7142;SDS011;3613;48.902;9.204;2023-05-10T03:49:44;6.23;;;4.33;;
7142;SDS011;3613;48.902;9.204;2023-05-10T03:52:12;5.20;;;4.70;;
7142;SDS011;3613;48.902;9.204;2023-05-10T03:54:38;6.07;;;4.37;;
7142;SDS011;3613;48.902;9.204;2023-05-10T03:57:04;4.70;;;4.20;;
7142;SDS011;3613;48.902;9.204;2023-05-10T03:59:29;4.93;;;4.40;;
7142;SDS011;3613;48.902;9.204;2023-05-10T04:02:00;6.03;;;3.97;;
7142;SDS011;3613;48.902;9.204;2023-05-10T04:04:26;4.90;;;4.17;;
7142;SDS011;3613;48.902;9.204;2023-05-10T04:06:52;6.10;;;5.00;;
7142;SDS011;3613;48.902;9.204;2023-05-10T04:09:17;4.87;;;4.33;;
7142;SDS011;3613;48.902;9.204;2023-05-10T04:11:43;6.43;;;4.50;;
7142;SDS011;3613;48.902;9.204;2023-05-10T04:14:09;5.83;;;4.47;;
7142;SDS011;3613;48.902;9.204;2023-05-10T04:16:37;7.93;;;4.70;;
7142;SDS011;3613;48.902;9.204;2023-05-10T04:19:02;5.57;;;4.70;;
7142;SDS011;3613;48.902;9.204;2023-05-10T04:21:31;5.20;;;4.50;;
7142;SDS011;3613;48.902;9.204;2023-05-10T04:23:57;6.10;;;4.60;;
7142;SDS011;3613;48.902;9.204;2023-05-10T04:26:22;6.07;;;4.23;;
7142;SDS011;3613;48.902;9.204;2023-05-10T04:28:49;4.90;;;4.40;;
7142;SDS011;3613;48.902;9.204;2023-05-10T04:31:16;5.80;;;4.70;;
7142;SDS011;3613;48.902;9.204;2023-05-10T04:33:42;5.97;;;4.30;;
7142;SDS011;3613;48.902;9.204;2023-05-10T04:36:08;5.43;;;4.87;;
7142;SDS011;3613;48.902;9.204;2023-05-10T04:38:36;6.50;;;4.17;;
7142;SDS011;3613;48.902;9.204;2023-05-10T04:41:08;5.47;;;3.93;;
7142;SDS011;3613;48.902;9.204;2023-05-10T04:43:37;6.47;;;4.20;;
7142;SDS011;3613;48.902;9.204;2023-05-10T04:46:03;5.07;;;3.90;;
7142;SDS011;3613;48.902;9.204;2023-05-10T04:48:32;4.60;;;3.60;;
7142;SDS011;3613;48.902;9.204;2023-05-10T04:50:57;4.77;;;4.07;;
7142;SDS011;3613;48.902;9.204;2023-05-10T04:53:26;7.03;;;4.27;;
7142;SDS011;3613;48.902;9.204;2023-05-10T04:55:52;4.40;;;3.67;;
7142;SDS011;3613;48.902;9.204;2023-05-10T04:58:18;3.90;;;3.43;;
7142;SDS011;3613;48.902;9.204;2023-05-10T05:00:46;6.63;;;3.50;;
7142;SDS011;3613;48.902;9.204;2023-05-10T05:03:12;4.53;;;3.33;;
7142;SDS011;3613;48.902;9.204;2023-05-10T05:05:40;4.43;;;3.40;;
7142;SDS011;3613;48.902;9.204;2023-05-10T05:08:06;5.00;;;3.27;;
7142;SDS011;3613;48.902;9.204;2023-05-10T05:10:34;6.27;;;3.63;;
7142;SDS011;3613;48.902;9.204;2023-05-10T05:13:00;5.13;;;3.63;;
7142;SDS011;3613;48.902;9.204;2023-05-10T05:15:28;6.27;;;3.60;;
7142;SDS011;3613;48.902;9.204;2023-05-10T05:17:55;6.30;;;3.37;;
7142;SDS011;3613;48.902;9.204;2023-05-10T05:20:23;5.33;;;3.77;;
7142;SDS011;3613;48.902;9.204;2023-05-10T05:22:49;6.37;;;4.00;;
7142;SDS011;3613;48.902;9.204;2023-05-10T05:25:17;5.37;;;4.00;;
7142;SDS011;3613;48.902;9.204;2023-05-10T05:27:43;5.47;;;4.33;;
7142;SDS011;3613;48.902;9.204;2023-05-10T05:30:09;4.27;;;3.87;;
7142;SDS011;3613;48.902;9.204;2023-05-10T05:32:35;4.47;;;3.40;;
7142;SDS011;3613;48.902;9.204;2023-05-10T05:35:03;4.60;;;3.30;;
7142;SDS011;3613;48.902;9.204;2023-05-10T05:37:29;3.37;;;3.07;;
7142;SDS011;3613;48.902;9.204;2023-05-10T05:39:55;4.60;;;3.10;;
7142;SDS011;3613;48.902;9.204;2023-05-10T05:42:24;3.20;;;2.90;;
7142;SDS011;3613;48.902;9.204;2023-05-10T05:44:49;3.63;;;3.07;;
7142;SDS011;3613;48.902;9.204;2023-05-10T05:47:15;3.40;;;2.93;;
7142;SDS011;3613;48.902;9.204;2023-05-10T05:49:41;5.03;;;2.93;;
7142;SDS011;3613;48.902;9.204;2023-05-10T05:52:07;4.73;;;3.50;;
7142;SDS011;3613;48.902;9.204;2023-05-10T05:54:32;6.63;;;3.30;;
7142;SDS011;3613;48.902;9.204;2023-05-10T05:56:58;4.17;;;2.83;;
7142;SDS011;3613;48.902;9.204;2023-05-10T05:59:27;4.43;;;3.10;;
7142;SDS011;3613;48.902;9.204;2023-05-10T06:01:55;5.13;;;2.83;;
7142;SDS011;3613;48.902;9.204;2023-05-10T06:04:23;3.00;;;2.70;;
7142;SDS011;3613;48.902;9.204;2023-05-10T06:06:49;2.73;;;2.50;;
7142;SDS011;3613;48.902;9.204;2023-05-10T06:09:15;3.23;;;2.93;;
7142;SDS011;3613;48.902;9.204;2023-05-10T06:11:46;3.73;;;2.80;;
7142;SDS011;3613;48.902;9.204;2023-05-10T06:14:11;4.37;;;3.10;;
7142;SDS011;3613;48.902;9.204;2023-05-10T06:16:39;3.83;;;2.90;;
7142;SDS011;3613;48.902;9.204;2023-05-10T06:19:05;6.73;;;3.30;;
7142;SDS011;3613;48.902;9.204;2023-05-10T06:21:33;3.43;;;3.00;;
7142;SDS011;3613;48.902;9.204;2023-05-10T06:23:59;4.20;;;3.40;;
7142;SDS011;3613;48.902;9.204;2023-05-10T06:26:25;5.43;;;3.10;;
7142;SDS011;3613;48.902;9.204;2023-05-10T06:28:53;3.97;;;3.10;;
7142;SDS011;3613;48.902;9.204;2023-05-10T06:31:18;5.17;;;2.80;;
7142;SDS011;3613;48.902;9.204;2023-05-10T06:33:44;5.30;;;2.90;;
7142;SDS011;3613;48.902;9.204;2023-05-10T06:36:10;4.33;;;2.80;;
7142;SDS011;3613;48.902;9.204;2023-05-10T06:38:36;5.10;;;2.80;;
7142;SDS011;3613;48.902;9.204;2023-05-10T06:41:02;2.73;;;2.40;;
7142;SDS011;3613;48.902;9.204;2023-05-10T06:43:30;2.67;;;2.40;;
7142;SDS011;3613;48.902;9.204;2023-05-10T06:45:56;4.83;;;3.03;;
7142;SDS011;3613;48.902;9.204;2023-05-10T06:48:25;4.63;;;2.90;;
7142;SDS011;3613;48.902;9.204;2023-05-10T06:50:51;4.47;;;2.40;;
7142;SDS011;3613;48.902;9.204;2023-05-10T06:53:16;2.87;;;2.27;;
7142;SDS011;3613;48.902;9.204;2023-05-10T06:55:42;4.30;;;2.73;;
7142;SDS011;3613;48.902;9.204;2023-05-10T06:58:08;2.87;;;2.47;;
7142;SDS011;3613;48.902;9.204;2023-05-10T07:00:34;4.57;;;2.43;;
7142;SDS011;3613;48.902;9.204;2023-05-10T07:03:05;6.20;;;2.57;;
7142;SDS011;3613;48.902;9.204;2023-05-10T07:05:33;3.30;;;1.90;;
7142;SDS011;3613;48.902;9.204;2023-05-10T07:07:58;2.30;;;1.93;;
7142;SDS011;3613;48.902;9.204;2023-05-10T07:10:29;3.20;;;2.20;;
7142;SDS011;3613;48.902;9.204;2023-05-10T07:12:55;2.90;;;1.60;;
7142;SDS011;3613;48.902;9.204;2023-05-10T07:15:21;3.13;;;1.73;;
7142;SDS011;3613;48.902;9.204;2023-05-10T07:17:51;2.80;;;1.90;;
7142;SDS011;3613;48.902;9.204;2023-05-10T07:20:17;2.20;;;1.60;;
7142;SDS011;3613;48.902;9.204;2023-05-10T07:22:43;2.87;;;1.63;;
7142;SDS011;3613;48.902;9.204;2023-05-10T07:25:09;2.30;;;1.90;;
7142;SDS011;3613;48.902;9.204;2023-05-10T07:27:37;3.50;;;2.00;;
7142;SDS011;3613;48.902;9.204;2023-05-10T07:30:03;1.70;;;1.60;;
7142;SDS011;3613;48.902;9.204;2023-05-10T07:32:29;2.67;;;2.03;;
7142;SDS011;3613;48.902;9.204;2023-05-10T07:34:55;6.40;;;1.80;;
7142;SDS011;3613;48.902;9.204;2023-05-10T07:37:21;3.00;;;1.70;;
7142;SDS011;3613;48.902;9.204;2023-05-10T07:39:49;1.73;;;1.53;;
7142;SDS011;3613;48.902;9.204;2023-05-10T07:42:15;2.50;;;1.60;;
7142;SDS011;3613;48.902;9.204;2023-05-10T07:44:41;3.00;;;1.90;;
7142;SDS011;3613;48.902;9.204;2023-05-10T07:47:10;4.83;;;2.00;;
7142;SDS011;3613;48.902;9.204;2023-05-10T07:49:38;3.50;;;1.60;;
7142;SDS011;3613;48.902;9.204;2023-05-10T07:52:04;3.83;;;1.83;;
7142;SDS011;3613;48.902;9.204;2023-05-10T07:54:30;2.33;;;1.90;;
7142;SDS011;3613;48.902;9.204;2023-05-10T07:56:56;4.57;;;1.70;;
7142;SDS011;3613;48.902;9.204;2023-05-10T07:59:22;3.47;;;1.40;;
7142;SDS011;3613;48.902;9.204;2023-05-10T08:01:48;1.57;;;1.17;;
7142;SDS011;3613;48.902;9.204;2023-05-10T08:04:16;4.40;;;1.43;;
7142;SDS011;3613;48.902;9.204;2023-05-10T08:06:42;1.87;;;1.33;;
7142;SDS011;3613;48.902;9.204;2023-05-10T08:09:08;1.10;;;0.93;;
7142;SDS011;3613;48.902;9.204;2023-05-10T08:11:34;1.90;;;1.10;;
7142;SDS011;3613;48.902;9.204;2023-05-10T08:14:00;2.10;;;1.20;;
7142;SDS011;3613;48.902;9.204;2023-05-10T08:16:26;4.47;;;1.10;;
7142;SDS011;3613;48.902;9.204;2023-05-10T08:18:54;1.30;;;1.10;;
7142;SDS011;3613;48.902;9.204;2023-05-10T08:21:23;1.53;;;1.00;;
7142;SDS011;3613;48.902;9.204;2023-05-10T08:23:49;1.07;;;0.90;;
7142;SDS011;3613;48.902;9.204;2023-05-10T08:26:15;1.40;;;1.00;;
7142;SDS011;3613;48.902;9.204;2023-05-10T08:28:41;1.93;;;1.03;;
7142;SDS011;3613;48.902;9.204;2023-05-10T08:31:07;1.10;;;0.80;;
7142;SDS011;3613;48.902;9.204;2023-05-10T08:33:33;1.37;;;1.00;;
7142;SDS011;3613;48.902;9.204;2023-05-10T08:35:59;1.57;;;1.10;;
7142;SDS011;3613;48.902;9.204;2023-05-10T08:38:26;3.17;;;1.10;;
7142;SDS011;3613;48.902;9.204;2023-05-10T08:40:52;0.87;;;0.83;;
7142;SDS011;3613;48.902;9.204;2023-05-10T08:43:24;1.60;;;1.00;;
7142;SDS011;3613;48.902;9.204;2023-05-10T08:45:54;1.00;;;0.93;;
7142;SDS011;3613;48.902;9.204;2023-05-10T08:48:21;1.10;;;1.00;;
7142;SDS011;3613;48.902;9.204;2023-05-10T08:50:49;1.90;;;0.97;;
7142;SDS011;3613;48.902;9.204;2023-05-10T08:53:17;4.50;;;1.30;;
7142;SDS011;3613;48.902;9.204;2023-05-10T08:55:44;1.33;;;1.23;;
7142;SDS011;3613;48.902;9.204;2023-05-10T08:58:11;1.20;;;0.87;;
7142;SDS011;3613;48.902;9.204;2023-05-10T09:00:37;1.80;;;1.17;;
7142;SDS011;3613;48.902;9.204;2023-05-10T09:03:05;1.80;;;1.10;;
7142;SDS011;3613;48.902;9.204;2023-05-10T09:05:34;1.50;;;0.93;;
7142;SDS011;3613;48.902;9.204;2023-05-10T09:08:01;4.50;;;1.10;;
7142;SDS011;3613;48.902;9.204;2023-05-10T09:10:27;1.87;;;0.90;;
7142;SDS011;3613;48.902;9.204;2023-05-10T09:12:55;0.97;;;0.90;;
7142;SDS011;3613;48.902;9.204;2023-05-10T09:15:22;2.50;;;0.90;;
7142;SDS011;3613;48.902;9.204;2023-05-10T09:18:04;0.80;;;0.80;;
7142;SDS011;3613;48.902;9.204;2023-05-10T09:20:45;1.83;;;0.80;;
7142;SDS011;3613;48.902;9.204;2023-05-10T09:23:11;1.03;;;0.93;;
7142;SDS011;3613;48.902;9.204;2023-05-10T09:25:38;1.13;;;0.80;;
7142;SDS011;3613;48.902;9.204;2023-05-10T09:28:06;0.83;;;0.70;;
7142;SDS011;3613;48.902;9.204;2023-05-10T09:30:33;0.80;;;0.80;;
7142;SDS011;3613;48.902;9.204;2023-05-10T09:33:00;2.50;;;1.00;;
7142;SDS011;3613;48.902;9.204;2023-05-10T09:35:29;1.97;;;1.27;;
7142;SDS011;3613;48.902;9.204;2023-05-10T09:37:58;2.20;;;0.97;;
7142;SDS011;3613;48.902;9.204;2023-05-10T09:40:26;2.13;;;0.97;;
7142;SDS011;3613;48.902;9.204;2023-05-10T09:45:22;0.97;;;0.70;;
7142;SDS011;3613;48.902;9.204;2023-05-10T09:47:48;1.00;;;0.80;;
7142;SDS011;3613;48.902;9.204;2023-05-10T09:50:14;1.93;;;1.00;;
7142;SDS011;3613;48.902;9.204;2023-05-10T09:55:25;1.50;;;0.73;;
7142;SDS011;3613;48.902;9.204;2023-05-10T09:58:05;1.10;;;0.70;;
7142;SDS011;3613;48.902;9.204;2023-05-10T10:00:37;0.70;;;0.70;;
7142;SDS011;3613;48.902;9.204;2023-05-10T10:03:12;0.77;;;0.77;;
7142;SDS011;3613;48.902;9.204;2023-05-10T10:05:40;0.87;;;0.70;;
7142;SDS011;3613;48.902;9.204;2023-05-10T10:08:07;1.50;;;0.70;;
7142;SDS011;3613;48.902;9.204;2023-05-10T10:10:33;1.37;;;0.90;;
7142;SDS011;3613;48.902;9.204;2023-05-10T10:13:01;1.30;;;1.00;;
7142;SDS011;3613;48.902;9.204;2023-05-10T10:15:30;1.50;;;0.93;;
7142;SDS011;3613;48.902;9.204;2023-05-10T10:17:55;1.33;;;0.90;;
7142;SDS011;3613;48.902;9.204;2023-05-10T10:20:22;3.13;;;1.00;;
7142;SDS011;3613;48.902;9.204;2023-05-10T10:22:48;1.90;;;0.83;;
7142;SDS011;3613;48.902;9.204;2023-05-10T10:25:15;1.17;;;1.00;;
7142;SDS011;3613;48.902;9.204;2023-05-10T10:30:27;1.73;;;1.00;;
7142;SDS011;3613;48.902;9.204;2023-05-10T10:35:30;1.13;;;1.00;;
7142;SDS011;3613;48.902;9.204;2023-05-10T10:37:56;1.20;;;1.00;;
7142;SDS011;3613;48.902;9.204;2023-05-10T10:42:52;1.93;;;0.83;;
7142;SDS011;3613;48.902;9.204;2023-05-10T10:45:19;1.63;;;1.20;;
7142;SDS011;3613;48.902;9.204;2023-05-10T10:47:45;1.30;;;1.10;;
7142;SDS011;3613;48.902;9.204;2023-05-10T10:50:14;1.43;;;0.90;;
7142;SDS011;3613;48.902;9.204;2023-05-10T10:52:44;1.00;;;0.90;;
7142;SDS011;3613;48.902;9.204;2023-05-10T10:55:13;0.60;;;0.60;;
7142;SDS011;3613;48.902;9.204;2023-05-10T11:00:23;1.47;;;1.10;;
7142;SDS011;3613;48.902;9.204;2023-05-10T11:05:39;1.10;;;1.00;;
7142;SDS011;3613;48.902;9.204;2023-05-10T11:10:36;1.37;;;0.90;;
7142;SDS011;3613;48.902;9.204;2023-05-10T11:13:03;1.20;;;0.90;;
7142;SDS011;3613;48.902;9.204;2023-05-10T11:15:34;1.93;;;1.03;;
7142;SDS011;3613;48.902;9.204;2023-05-10T11:18:20;1.13;;;0.90;;
7142;SDS011;3613;48.902;9.204;2023-05-10T11:20:50;3.33;;;1.20;;
7142;SDS011;3613;48.902;9.204;2023-05-10T11:23:16;1.17;;;0.97;;
7142;SDS011;3613;48.902;9.204;2023-05-10T11:25:43;1.53;;;1.07;;
7142;SDS011;3613;48.902;9.204;2023-05-10T11:28:09;0.87;;;0.83;;
7142;SDS011;3613;48.902;9.204;2023-05-10T11:30:41;1.67;;;1.00;;
7142;SDS011;3613;48.902;9.204;2023-05-10T11:33:09;1.37;;;1.20;;
7142;SDS011;3613;48.902;9.204;2023-05-10T11:35:40;1.20;;;0.90;;
7142;SDS011;3613;48.902;9.204;2023-05-10T11:38:07;1.27;;;1.00;;
7142;SDS011;3613;48.902;9.204;2023-05-10T11:40:33;1.87;;;1.30;;
7142;SDS011;3613;48.902;9.204;2023-05-10T11:43:02;2.43;;;0.90;;
7142;SDS011;3613;48.902;9.204;2023-05-10T11:45:28;1.97;;;0.90;;
7142;SDS011;3613;48.902;9.204;2023-05-10T11:47:56;2.40;;;1.10;;
7142;SDS011;3613;48.902;9.204;2023-05-10T11:50:22;2.27;;;1.17;;
7142;SDS011;3613;48.902;9.204;2023-05-10T11:52:54;1.83;;;1.03;;
7142;SDS011;3613;48.902;9.204;2023-05-10T11:55:21;1.80;;;1.20;;
7142;SDS011;3613;48.902;9.204;2023-05-10T11:57:47;2.30;;;1.57;;
7142;SDS011;3613;48.902;9.204;2023-05-10T12:00:17;2.10;;;1.10;;
7142;SDS011;3613;48.902;9.204;2023-05-10T12:02:43;4.97;;;1.57;;
7142;SDS011;3613;48.902;9.204;2023-05-10T12:05:09;1.63;;;1.40;;
7142;SDS011;3613;48.902;9.204;2023-05-10T12:07:35;1.37;;;1.20;;
7142;SDS011;3613;48.902;9.204;2023-05-10T12:10:13;2.17;;;1.20;;
7142;SDS011;3613;48.902;9.204;2023-05-10T12:12:45;2.20;;;1.30;;
7142;SDS011;3613;48.902;9.204;2023-05-10T12:15:22;2.40;;;1.43;;
7142;SDS011;3613;48.902;9.204;2023-05-10T12:17:49;2.67;;;1.10;;
7142;SDS011;3613;48.902;9.204;2023-05-10T12:20:22;3.97;;;2.43;;
7142;SDS011;3613;48.902;9.204;2023-05-10T12:25:15;6.33;;;1.93;;
7142;SDS011;3613;48.902;9.204;2023-05-10T12:27:47;3.07;;;1.70;;
7142;SDS011;3613;48.902;9.204;2023-05-10T12:30:23;3.00;;;1.53;;
7142;SDS011;3613;48.902;9.204;2023-05-10T12:32:51;3.43;;;1.37;;
7142;SDS011;3613;48.902;9.204;2023-05-10T12:35:17;2.87;;;1.20;;
7142;SDS011;3613;48.902;9.204;2023-05-10T12:37:47;5.10;;;1.20;;
7142;SDS011;3613;48.902;9.204;2023-05-10T12:40:15;1.80;;;1.13;;
7142;SDS011;3613;48.902;9.204;2023-05-10T12:42:41;3.53;;;1.20;;
7142;SDS011;3613;48.902;9.204;2023-05-10T12:45:07;3.57;;;1.30;;
7142;SDS011;3613;48.902;9.204;2023-05-10T12:47:34;2.33;;;1.40;;
7142;SDS011;3613;48.902;9.204;2023-05-10T12:50:00;3.13;;;0.90;;
7142;SDS011;3613;48.902;9.204;2023-05-10T12:52:27;1.57;;;1.20;;
7142;SDS011;3613;48.902;9.204;2023-05-10T12:54:53;2.50;;;1.00;;
7142;SDS011;3613;48.902;9.204;2023-05-10T12:57:22;1.73;;;1.10;;
7142;SDS011;3613;48.902;9.204;2023-05-10T12:59:50;1.30;;;1.10;;
7142;SDS011;3613;48.902;9.204;2023-05-10T13:02:16;2.80;;;1.23;;
7142;SDS011;3613;48.902;9.204;2023-05-10T13:04:46;1.63;;;1.10;;
7142;SDS011;3613;48.902;9.204;2023-05-10T13:07:12;2.60;;;1.00;;
7142;SDS011;3613;48.902;9.204;2023-05-10T13:09:38;3.33;;;1.40;;
7142;SDS011;3613;48.902;9.204;2023-05-10T13:12:04;2.17;;;1.20;;
7142;SDS011;3613;48.902;9.204;2023-05-10T13:14:32;3.10;;;1.30;;
7142;SDS011;3613;48.902;9.204;2023-05-10T13:16:58;1.40;;;0.97;;
7142;SDS011;3613;48.902;9.204;2023-05-10T13:19:25;1.17;;;0.90;;
7142;SDS011;3613;48.902;9.204;2023-05-10T13:21:56;2.47;;;1.10;;
7142;SDS011;3613;48.902;9.204;2023-05-10T13:24:24;4.70;;;1.17;;
7142;SDS011;3613;48.902;9.204;2023-05-10T13:26:50;1.37;;;1.03;;
7142;SDS011;3613;48.902;9.204;2023-05-10T13:29:16;1.97;;;1.00;;
7142;SDS011;3613;48.902;9.204;2023-05-10T13:31:43;1.40;;;0.90;;
7142;SDS011;3613;48.902;9.204;2023-05-10T13:34:08;2.40;;;1.00;;
7142;SDS011;3613;48.902;9.204;2023-05-10T13:36:34;2.63;;;1.10;;
7142;SDS011;3613;48.902;9.204;2023-05-10T13:39:03;2.27;;;1.20;;
7142;SDS011;3613;48.902;9.204;2023-05-10T13:41:30;1.90;;;1.00;;
7142;SDS011;3613;48.902;9.204;2023-05-10T13:43:58;2.23;;;1.10;;
7142;SDS011;3613;48.902;9.204;2023-05-10T13:46:25;1.17;;;0.87;;
7142;SDS011;3613;48.902;9.204;2023-05-10T13:48:50;2.43;;;1.00;;
7142;SDS011;3613;48.902;9.204;2023-05-10T13:51:16;2.40;;;1.47;;
7142;SDS011;3613;48.902;9.204;2023-05-10T13:53:43;0.87;;;0.80;;
7142;SDS011;3613;48.902;9.204;2023-05-10T13:56:08;2.60;;;1.47;;
7142;SDS011;3613;48.902;9.204;2023-05-10T13:58:34;1.87;;;1.03;;
7142;SDS011;3613;48.902;9.204;2023-05-10T14:01:04;2.30;;;0.90;;
7142;SDS011;3613;48.902;9.204;2023-05-10T14:03:30;3.80;;;1.20;;
7142;SDS011;3613;48.902;9.204;2023-05-10T14:05:59;2.17;;;0.93;;
7142;SDS011;3613;48.902;9.204;2023-05-10T14:08:27;2.50;;;0.80;;
7142;SDS011;3613;48.902;9.204;2023-05-10T14:10:55;2.07;;;1.13;;
7142;SDS011;3613;48.902;9.204;2023-05-10T14:13:22;1.60;;;1.37;;
7142;SDS011;3613;48.902;9.204;2023-05-10T14:15:50;2.00;;;1.00;;
7142;SDS011;3613;48.902;9.204;2023-05-10T14:18:16;3.13;;;1.63;;
7142;SDS011;3613;48.902;9.204;2023-05-10T14:20:42;1.77;;;1.17;;
7142;SDS011;3613;48.902;9.204;2023-05-10T14:23:08;1.30;;;1.10;;
7142;SDS011;3613;48.902;9.204;2023-05-10T14:25:34;1.77;;;1.20;;
7142;SDS011;3613;48.902;9.204;2023-05-10T14:28:03;2.37;;;1.37;;
7142;SDS011;3613;48.902;9.204;2023-05-10T14:30:29;1.73;;;1.30;;
7142;SDS011;3613;48.902;9.204;2023-05-10T14:32:55;2.60;;;1.20;;
7142;SDS011;3613;48.902;9.204;2023-05-10T14:35:25;3.33;;;1.20;;
7142;SDS011;3613;48.902;9.204;2023-05-10T14:37:55;1.83;;;1.20;;
7142;SDS011;3613;48.902;9.204;2023-05-10T14:40:23;3.90;;;1.30;;
7142;SDS011;3613;48.902;9.204;2023-05-10T14:42:50;1.23;;;1.00;;
7142;SDS011;3613;48.902;9.204;2023-05-10T14:45:17;2.37;;;1.50;;
7142;SDS011;3613;48.902;9.204;2023-05-10T14:47:46;1.67;;;1.00;;
7142;SDS011;3613;48.902;9.204;2023-05-10T14:50:11;3.57;;;1.30;;
7142;SDS011;3613;48.902;9.204;2023-05-10T14:52:37;2.57;;;1.20;;
7142;SDS011;3613;48.902;9.204;2023-05-10T14:55:03;3.27;;;1.10;;
7142;SDS011;3613;48.902;9.204;2023-05-10T14:57:34;1.80;;;1.00;;
7142;SDS011;3613;48.902;9.204;2023-05-10T15:00:00;1.30;;;1.20;;
7142;SDS011;3613;48.902;9.204;2023-05-10T15:02:26;2.23;;;1.20;;
7142;SDS011;3613;48.902;9.204;2023-05-10T15:04:54;2.00;;;1.10;;
7142;SDS011;3613;48.902;9.204;2023-05-10T15:07:20;2.37;;;1.40;;
7142;SDS011;3613;48.902;9.204;2023-05-10T15:09:45;2.10;;;1.10;;
7142;SDS011;3613;48.902;9.204;2023-05-10T15:12:11;1.77;;;1.20;;
7142;SDS011;3613;48.902;9.204;2023-05-10T15:14:37;1.70;;;1.10;;
7142;SDS011;3613;48.902;9.204;2023-05-10T15:17:06;2.20;;;1.20;;
7142;SDS011;3613;48.902;9.204;2023-05-10T15:19:35;2.60;;;1.30;;
7142;SDS011;3613;48.902;9.204;2023-05-10T15:22:01;1.53;;;1.00;;
7142;SDS011;3613;48.902;9.204;2023-05-10T15:24:27;2.50;;;1.27;;
7142;SDS011;3613;48.902;9.204;2023-05-10T15:26:52;3.07;;;0.90;;
7142;SDS011;3613;48.902;9.204;2023-05-10T15:29:18;1.17;;;0.90;;
7142;SDS011;3613;48.902;9.204;2023-05-10T15:31:46;4.20;;;1.20;;
7142;SDS011;3613;48.902;9.204;2023-05-10T15:34:13;2.27;;;1.10;;
7142;SDS011;3613;48.902;9.204;2023-05-10T15:36:39;2.57;;;1.23;;
7142;SDS011;3613;48.902;9.204;2023-05-10T15:39:04;1.00;;;1.00;;
7142;SDS011;3613;48.902;9.204;2023-05-10T15:41:34;1.73;;;1.17;;
7142;SDS011;3613;48.902;9.204;2023-05-10T15:43:59;2.40;;;1.10;;
7142;SDS011;3613;48.902;9.204;2023-05-10T15:46:28;2.13;;;1.10;;
7142;SDS011;3613;48.902;9.204;2023-05-10T15:48:54;1.70;;;1.00;;
7142;SDS011;3613;48.902;9.204;2023-05-10T15:51:20;2.63;;;0.97;;
7142;SDS011;3613;48.902;9.204;2023-05-10T15:53:49;1.73;;;1.10;;
7142;SDS011;3613;48.902;9.204;2023-05-10T15:56:17;3.13;;;1.23;;
7142;SDS011;3613;48.902;9.204;2023-05-10T15:58:42;1.43;;;1.00;;
7142;SDS011;3613;48.902;9.204;2023-05-10T16:01:09;2.93;;;1.87;;